Weather reports worldwide

Advertisment
Heino aws, Netherlands (6278): temperature & dewpoint: 10.12.2019 13:00:00 - 16.12.2019 13:00:00 (CET)Heino aws, Netherlands (6278): temperature 5cm: 10.12.2019 13:00:00 - 16.12.2019 13:00:00 (CET)Heino aws, Netherlands (6278): wind speed & gusts: 10.12.2019 13:00:00 - 16.12.2019 13:00:00 (CET)Heino aws, Netherlands (6278): wind direction: 10.12.2019 13:00:00 - 16.12.2019 13:00:00 (CET)Heino aws, Netherlands (6278): precipitation: 10.12.2019 13:00:00 - 16.12.2019 13:00:00 (CET)
Date & Time tt [°C] td [°C] tt 5cm [°C] ff [km/h] ff [kn] fx [km/h] fx [kn] dd rr [mm]
16.12.2019 13:00:00 8,0 6,4 7,8 11 6 - - S -
16.12.2019 12:00:00 7,9 6,0 7,7 11 6 18 10 S 0,0
16.12.2019 11:00:00 7,6 5,7 7,2 11 6 18 10 S 0,0
16.12.2019 10:00:00 7,0 5,5 6,4 11 6 22 12 S 0,0
16.12.2019 09:00:00 6,0 4,8 5,5 11 6 22 12 S 0,0
16.12.2019 08:00:00 6,0 4,5 5,4 14 8 29 16 S 0,0
16.12.2019 07:00:00 5,3 3,8 4,3 11 6 22 12 S 0,0
16.12.2019 06:00:00 4,8 3,2 4,1 11 6 22 12 S 0,0
16.12.2019 05:00:00 4,7 2,9 3,9 14 8 22 12 S 0,0
16.12.2019 04:00:00 4,7 2,5 3,7 11 6 22 12 S 0,0
16.12.2019 03:00:00 4,6 2,2 3,7 11 6 22 12 S 0,0
16.12.2019 02:00:00 4,6 1,9 3,4 14 8 22 12 S 0,0
16.12.2019 01:00:00 5,1 2,1 3,6 11 6 18 10 S 0,0
16.12.2019 00:00:00 5,9 2,4 4,7 11 6 29 16 S 0,0
15.12.2019 23:00:00 6,1 2,5 4,8 14 8 25 14 SSW 0,0
15.12.2019 22:00:00 6,0 2,9 4,8 14 8 40 21 SSW 0,1
15.12.2019 21:00:00 6,4 3,1 5,0 18 10 32 18 SW 0,0
15.12.2019 20:00:00 6,3 3,5 5,1 18 10 32 18 SW 0,0
15.12.2019 19:00:00 6,4 3,6 5,4 22 12 36 19 SW 0,0
15.12.2019 18:00:00 7,1 4,2 5,9 18 10 36 19 SW 0,0
15.12.2019 17:00:00 7,5 4,7 6,7 22 12 54 29 SW 0,4
15.12.2019 16:00:00 8,2 4,4 7,3 25 14 43 23 SW 0,0
15.12.2019 15:00:00 7,7 4,6 7,2 22 12 50 27 SW 0,0
15.12.2019 14:00:00 7,7 3,9 7,4 29 16 54 29 SW 0,0
15.12.2019 13:00:00 8,9 2,9 8,3 29 16 47 25 SW 0,0
15.12.2019 12:00:00 8,1 2,3 8,2 25 14 47 25 SW 0,0
15.12.2019 11:00:00 7,7 2,4 7,5 29 16 50 27 WSW 0,0
15.12.2019 10:00:00 7,5 3,0 6,9 29 16 58 31 WSW 0,0
15.12.2019 09:00:00 7,8 3,2 6,8 36 19 54 29 WSW 0,0
15.12.2019 08:00:00 8,3 5,4 7,7 29 16 50 27 WSW 0,0
15.12.2019 07:00:00 8,6 6,0 7,9 29 16 47 25 WSW 0,0
15.12.2019 06:00:00 7,6 6,7 6,9 18 10 36 19 SSW 1,1
15.12.2019 05:00:00 7,1 5,7 6,7 22 12 40 21 S 0,0
15.12.2019 04:00:00 6,4 3,5 5,4 14 8 32 18 S 0,0
15.12.2019 03:00:00 5,4 3,0 4,4 14 8 29 16 SSE 0,0
15.12.2019 02:00:00 4,6 2,4 3,3 11 6 29 16 SSE 0,0
15.12.2019 01:00:00 3,6 1,3 2,3 11 6 22 12 S 0,0
15.12.2019 00:00:00 3,1 0,9 1,6 7 4 22 12 S 0,0
14.12.2019 23:00:00 3,7 0,8 2,4 14 8 25 14 SSW 0,0
14.12.2019 22:00:00 3,8 0,9 2,6 14 8 29 16 SW 0,0
14.12.2019 21:00:00 4,2 1,8 3,4 14 8 25 14 SW 0,0
14.12.2019 20:00:00 4,2 2,2 3,0 14 8 36 19 SW 0,0
14.12.2019 19:00:00 4,2 2,9 3,1 22 12 36 19 WSW 0,1
14.12.2019 18:00:00 2,3 2,0 1,7 14 8 29 16 SW 2,0
14.12.2019 17:00:00 3,7 3,1 3,7 11 6 25 14 WNW 5,1
14.12.2019 16:00:00 5,5 3,3 5,4 25 14 40 21 SW 0,2
14.12.2019 15:00:00 7,2 2,3 6,7 14 8 47 25 SW 0,0
14.12.2019 14:00:00 7,4 2,2 7,2 25 14 54 29 WSW 0,0
14.12.2019 13:00:00 7,2 2,4 6,7 32 18 50 27 WSW 0,0
14.12.2019 12:00:00 6,6 3,1 6,2 25 14 43 23 WSW 0,0
14.12.2019 11:00:00 6,5 3,6 6,2 25 14 40 21 WSW 0,0
14.12.2019 10:00:00 5,4 3,3 5,0 18 10 61 33 WSW 0,1
14.12.2019 09:00:00 5,0 3,5 3,8 22 12 29 16 WSW 0,0
14.12.2019 08:00:00 4,3 3,5 3,6 14 8 29 16 SW 0,0
14.12.2019 07:00:00 4,4 3,9 4,2 11 6 25 14 SW 0,6
14.12.2019 06:00:00 4,7 3,7 4,5 14 8 25 14 SSW 0,5
14.12.2019 05:00:00 5,1 3,9 4,8 14 8 32 18 SSW 0,2
14.12.2019 04:00:00 5,1 3,3 4,7 14 8 29 16 SSW 0,0
14.12.2019 03:00:00 5,4 3,2 4,9 14 8 32 18 SSW 0,0
14.12.2019 02:00:00 5,7 3,4 5,1 14 8 32 18 SSW 0,0
14.12.2019 01:00:00 4,8 3,5 3,7 11 6 22 12 SSW 0,0
14.12.2019 00:00:00 5,7 4,0 4,9 14 8 32 18 SSW 0,0
13.12.2019 23:00:00 5,7 4,8 5,2 14 8 22 12 SSW 0,0
13.12.2019 22:00:00 5,1 4,6 4,2 11 6 18 10 SSW 0,0
13.12.2019 21:00:00 5,1 4,7 4,3 11 6 22 12 SW 0,2
13.12.2019 20:00:00 4,5 4,3 4,3 11 6 18 10 SSW 0,0
13.12.2019 19:00:00 3,8 3,8 3,8 7 4 11 6 SSW 0,3
13.12.2019 18:00:00 3,5 3,5 3,5 7 4 11 6 SW 0,1
13.12.2019 17:00:00 3,2 3,0 3,3 7 4 11 6 SW 0,3
13.12.2019 16:00:00 3,3 3,1 3,5 0 0 7 4 N 1,1
13.12.2019 15:00:00 3,4 3,0 3,6 4 2 11 6 NE 1,3
13.12.2019 14:00:00 3,6 3,3 4,0 7 4 11 6 NNE 0,8
13.12.2019 13:00:00 3,5 3,0 3,8 7 4 14 8 E 0,1
13.12.2019 12:00:00 3,8 2,5 3,8 7 4 14 8 E 0,0
13.12.2019 11:00:00 3,4 2,2 3,3 11 6 22 12 ESE 0,0
13.12.2019 10:00:00 3,0 2,3 3,0 11 6 22 12 ESE 0,0
13.12.2019 09:00:00 2,9 2,3 2,8 11 6 25 14 ESE 0,3
13.12.2019 08:00:00 3,1 1,8 3,0 14 8 29 16 ESE 0,0
13.12.2019 07:00:00 2,9 2,0 2,8 14 8 29 16 ESE 0,0
13.12.2019 06:00:00 2,7 1,8 2,6 18 10 40 21 SE 0,3
13.12.2019 05:00:00 2,7 1,5 2,6 18 10 36 19 SSE 0,5
13.12.2019 04:00:00 3,4 1,0 3,1 18 10 43 23 SSE 0,3
13.12.2019 03:00:00 3,9 0,7 3,6 18 10 43 23 SSE 0,1
13.12.2019 02:00:00 4,1 0,7 3,8 22 12 43 23 SSE 0,0
13.12.2019 01:00:00 4,0 0,5 3,4 22 12 43 23 SSE 0,0
13.12.2019 00:00:00 4,1 0,2 3,6 22 12 43 23 SSE 0,0
12.12.2019 23:00:00 4,2 0,3 3,8 18 10 36 19 SSE 0,0
12.12.2019 22:00:00 4,4 0,3 3,9 18 10 40 21 SSE 0,0
12.12.2019 21:00:00 4,0 0,3 3,5 14 8 32 18 SE 0,0
12.12.2019 20:00:00 3,8 0,4 3,2 14 8 36 19 SSE 0,0
12.12.2019 19:00:00 4,0 0,5 3,1 14 8 29 16 SSE 0,0
12.12.2019 18:00:00 3,6 1,0 2,4 11 6 29 16 SSE 0,0
12.12.2019 17:00:00 3,6 1,5 2,6 11 6 22 12 SE 0,0
12.12.2019 16:00:00 4,6 2,0 3,9 11 6 25 14 S 0,0
12.12.2019 15:00:00 4,9 2,0 4,5 14 8 29 16 S 0,0
12.12.2019 14:00:00 5,3 1,8 5,4 18 10 32 18 SSW 0,0
12.12.2019 13:00:00 5,0 2,6 5,2 11 6 25 14 SSW 0,0
12.12.2019 12:00:00 5,0 3,0 5,2 14 8 25 14 SSW 0,0
12.12.2019 11:00:00 4,3 3,0 4,1 14 8 22 12 SSW 0,0
12.12.2019 10:00:00 3,9 3,0 3,4 11 6 22 12 SSW 0,0
12.12.2019 09:00:00 3,7 3,1 2,9 11 6 22 12 SSW 0,0
12.12.2019 08:00:00 4,2 3,4 3,3 14 8 22 12 SSW 0,0
12.12.2019 07:00:00 4,5 3,7 3,8 14 8 22 12 SSW 0,0
12.12.2019 06:00:00 4,9 3,8 4,7 14 8 25 14 SSW 0,0
12.12.2019 05:00:00 4,9 3,4 4,3 14 8 29 16 SW 0,0
12.12.2019 04:00:00 5,2 3,8 4,7 14 8 22 12 SSW 0,0
12.12.2019 03:00:00 5,5 4,0 5,3 11 6 22 12 SSW 0,0
12.12.2019 02:00:00 5,6 4,3 5,4 11 6 22 12 SSW 0,0
12.12.2019 01:00:00 5,6 4,7 5,4 11 6 14 8 S 0,0
12.12.2019 00:00:00 5,4 4,8 5,2 7 4 14 8 S 0,0
11.12.2019 23:00:00 5,1 4,8 5,0 7 4 14 8 S 0,0
11.12.2019 22:00:00 5,0 4,7 4,7 7 4 18 10 S 0,0
11.12.2019 21:00:00 4,5 4,3 3,7 11 6 18 10 S 0,0
11.12.2019 20:00:00 4,6 4,3 3,9 7 4 14 8 S 0,0
11.12.2019 19:00:00 4,8 4,6 4,0 11 6 18 10 S 0,0
11.12.2019 18:00:00 5,0 4,8 4,1 7 4 14 8 S 0,0
11.12.2019 17:00:00 5,3 5,1 4,3 7 4 11 6 S 0,0
11.12.2019 16:00:00 5,9 5,4 5,2 7 4 14 8 S 0,0
11.12.2019 15:00:00 6,6 6,0 6,5 7 4 14 8 SSW 0,0
11.12.2019 14:00:00 7,0 6,2 7,2 11 6 18 10 SSW 0,0
11.12.2019 13:00:00 7,1 6,7 7,4 11 6 14 8 SSW 0,0
11.12.2019 12:00:00 6,9 6,4 7,1 11 6 22 12 SSW 0,0
11.12.2019 11:00:00 6,7 6,4 6,8 11 6 22 12 SSW 0,0
11.12.2019 10:00:00 6,3 6,3 6,3 11 6 25 14 SSW 0,6
11.12.2019 09:00:00 6,3 6,0 6,2 11 6 18 10 SSW 0,1
11.12.2019 08:00:00 6,4 5,9 6,2 14 8 25 14 SSW 0,0
11.12.2019 07:00:00 6,2 5,9 6,0 11 6 18 10 SSW 0,4
11.12.2019 06:00:00 6,1 5,8 6,0 11 6 25 14 SSW 0,6
11.12.2019 05:00:00 5,9 5,6 5,7 14 8 29 16 SSW 1,3
11.12.2019 04:00:00 5,7 5,1 5,5 14 8 32 18 S 0,1
11.12.2019 03:00:00 5,5 4,1 5,3 22 12 50 27 SSW 0,0
11.12.2019 02:00:00 6,4 2,8 6,3 25 14 47 25 SSW 0,0
11.12.2019 01:00:00 7,0 1,2 6,6 22 12 43 23 SSW 0,0
11.12.2019 00:00:00 6,6 0,8 6,2 22 12 43 23 S 0,0
10.12.2019 23:00:00 6,3 0,4 5,9 25 14 43 23 S 0,0
10.12.2019 22:00:00 5,9 0,5 5,5 25 14 47 25 S 0,0
10.12.2019 21:00:00 5,5 0,4 5,0 22 12 54 29 S 0,0
10.12.2019 20:00:00 5,5 0,5 5,2 22 12 50 27 S 0,0
10.12.2019 19:00:00 5,4 0,8 5,0 18 10 50 27 S 0,0
10.12.2019 18:00:00 5,2 1,1 4,8 22 12 43 23 S 0,0
10.12.2019 17:00:00 5,2 1,1 4,7 22 12 36 19 S 0,0
10.12.2019 16:00:00 4,9 1,5 4,2 18 10 32 18 S 0,0
10.12.2019 15:00:00 5,2 1,5 4,6 18 10 32 18 S 0,0
10.12.2019 14:00:00 6,3 1,5 6,4 18 10 32 18 SSW 0,0
10.12.2019 13:00:00 6,4 1,7 6,6 18 10 36 19 SSW 0,0

tt = temperature
td = dewpoint
tt 5cm = temperature 5cm
ff = wind speed
fx = gusts
dd = wind direction
rr = precipitation

Next stations